WZZ5244 LEBB-EPWA
Flight info
| Callsign | WZZ5244 |
|---|---|
| Flight time | 2h 40m |
| Altitude | 32000 |
| Route | PPN DCT LATEK DCT GONUP DCT TOU DCT GAI DCT MEN DCT NINUN UN871 OMASI DCT KINNI DCT SOSAL DCT KORED DCT INTEG DCT BIRGI DCT LEDVA DCT NETIR DCT KOTEK DCT LOGDA |
| Aircraft | A321/M-SDE3FGHIRWY/LB1 |
Departure
| Time | 2026-05-04 13:41 |
|---|---|
| Airport | Bilbao Airport (LEBB) |
Arrival
| Time | 2026-05-04 16:21 |
|---|---|
| Airport | Warsaw Chopin Airport (EPWA) |
| Time | Latitude | Longitude | Altitude | Speed | Heading |
|---|---|---|---|---|---|
| 2026-05-04 13:12 | 43.30460 | -2.90744 | 133 ft | 0 kts | 27° |
| 2026-05-04 13:30 | 43.30444 | -2.90755 | 132 ft | 4 kts | 27° |
| 2026-05-04 13:31 | 43.30425 | -2.90774 | 132 ft | 2 kts | 54° |
| 2026-05-04 13:31 | 43.30413 | -2.90802 | 132 ft | 4 kts | 79° |
| 2026-05-04 13:31 | 43.30413 | -2.90838 | 132 ft | 4 kts | 93° |
| 2026-05-04 13:31 | 43.30413 | -2.90847 | 132 ft | 0 kts | 91° |
| 2026-05-04 13:34 | 43.30412 | -2.90825 | 132 ft | 6 kts | 96° |
| 2026-05-04 13:34 | 43.30393 | -2.90754 | 132 ft | 9 kts | 115° |
| 2026-05-04 13:34 | 43.30356 | -2.90652 | 132 ft | 14 kts | 117° |
| 2026-05-04 13:34 | 43.30295 | -2.90568 | 132 ft | 9 kts | 146° |
| 2026-05-04 13:35 | 43.30242 | -2.90526 | 132 ft | 9 kts | 170° |
| 2026-05-04 13:35 | 43.30126 | -2.90566 | 132 ft | 9 kts | 156° |
| 2026-05-04 13:35 | 43.30089 | -2.90495 | 132 ft | 10 kts | 118° |
| 2026-05-04 13:36 | 43.30055 | -2.90400 | 132 ft | 13 kts | 117° |
| 2026-05-04 13:36 | 43.30010 | -2.90279 | 132 ft | 15 kts | 117° |
| 2026-05-04 13:36 | 43.29964 | -2.90154 | 132 ft | 15 kts | 117° |
| 2026-05-04 13:36 | 43.29916 | -2.90025 | 132 ft | 15 kts | 117° |
| 2026-05-04 13:37 | 43.29868 | -2.89891 | 132 ft | 16 kts | 116° |
| 2026-05-04 13:37 | 43.29818 | -2.89754 | 132 ft | 16 kts | 116° |
| 2026-05-04 13:37 | 43.29769 | -2.89621 | 132 ft | 12 kts | 117° |
| 2026-05-04 13:37 | 43.29725 | -2.89592 | 132 ft | 8 kts | 191° |
| 2026-05-04 13:38 | 43.29723 | -2.89593 | 132 ft | 0 kts | 197° |
| 2026-05-04 13:39 | 43.29717 | -2.89596 | 132 ft | 2 kts | 199° |
| 2026-05-04 13:39 | 43.29686 | -2.89630 | 132 ft | 10 kts | 228° |
| 2026-05-04 13:39 | 43.29651 | -2.89713 | 132 ft | 10 kts | 263° |
| 2026-05-04 13:39 | 43.29668 | -2.89825 | 132 ft | 14 kts | 286° |
| 2026-05-04 13:40 | 43.29705 | -2.89955 | 137 ft | 16 kts | 296° |
| 2026-05-04 13:40 | 43.29839 | -2.90321 | 132 ft | 77 kts | 296° |
| 2026-05-04 13:40 | 43.30179 | -2.91246 | 131 ft | 137 kts | 297° |
| 2026-05-04 13:40 | 43.30661 | -2.92579 | 426 ft | 159 kts | 299° |
| 2026-05-04 13:41 | 43.31163 | -2.93904 | 1184 ft | 161 kts | 298° |
| 2026-05-04 13:41 | 43.31695 | -2.95257 | 1767 ft | 161 kts | 298° |
| 2026-05-04 13:41 | 43.32246 | -2.96656 | 2134 ft | 176 kts | 298° |
| 2026-05-04 13:42 | 43.33928 | -2.99543 | 2669 ft | 206 kts | 314° |
| 2026-05-04 13:42 | 43.35084 | -3.00797 | 2919 ft | 226 kts | 336° |
| 2026-05-04 13:42 | 43.36706 | -3.01043 | 3215 ft | 250 kts | 12° |
| 2026-05-04 13:42 | 43.38215 | -2.99796 | 3753 ft | 263 kts | 49° |
| 2026-05-04 13:43 | 43.38948 | -2.97479 | 4376 ft | 273 kts | 84° |
| 2026-05-04 13:43 | 43.38802 | -2.94854 | 5054 ft | 278 kts | 102° |
| 2026-05-04 13:43 | 43.38280 | -2.92288 | 5780 ft | 281 kts | 108° |
| 2026-05-04 13:43 | 43.37624 | -2.89735 | 6549 ft | 284 kts | 109° |
| 2026-05-04 13:44 | 43.36948 | -2.87170 | 7261 ft | 287 kts | 109° |
| 2026-05-04 13:44 | 43.36292 | -2.84565 | 7982 ft | 290 kts | 109° |
| 2026-05-04 13:44 | 43.35666 | -2.81919 | 8701 ft | 293 kts | 107° |
| 2026-05-04 13:44 | 43.35060 | -2.79225 | 9451 ft | 296 kts | 107° |
| 2026-05-04 13:45 | 43.34470 | -2.76507 | 10174 ft | 298 kts | 107° |
| 2026-05-04 13:45 | 43.33870 | -2.73689 | 10413 ft | 318 kts | 107° |
| 2026-05-04 13:45 | 43.33236 | -2.70684 | 10535 ft | 338 kts | 107° |
| 2026-05-04 13:45 | 43.32565 | -2.67499 | 10670 ft | 356 kts | 107° |
| 2026-05-04 13:46 | 43.32098 | -2.65292 | 10746 ft | 368 kts | 107° |
| 2026-05-04 13:46 | 43.31366 | -2.61841 | 10898 ft | 384 kts | 107° |
| 2026-05-04 13:46 | 43.30607 | -2.58289 | 11342 ft | 390 kts | 107° |
| 2026-05-04 13:46 | 43.29833 | -2.54686 | 11881 ft | 394 kts | 108° |
| 2026-05-04 13:47 | 43.29056 | -2.51068 | 12459 ft | 396 kts | 108° |
| 2026-05-04 13:47 | 43.28276 | -2.47424 | 13021 ft | 400 kts | 108° |
| 2026-05-04 13:47 | 43.27488 | -2.43751 | 13653 ft | 403 kts | 108° |
| 2026-05-04 13:47 | 43.26693 | -2.40051 | 14194 ft | 406 kts | 109° |
| 2026-05-04 13:48 | 43.25887 | -2.36320 | 14710 ft | 409 kts | 109° |
| 2026-05-04 13:48 | 43.25073 | -2.32569 | 15233 ft | 412 kts | 109° |
| 2026-05-04 13:48 | 43.24250 | -2.28786 | 15765 ft | 415 kts | 109° |
| 2026-05-04 13:48 | 43.23422 | -2.24984 | 16284 ft | 418 kts | 109° |
| 2026-05-04 13:49 | 43.22590 | -2.21158 | 16772 ft | 420 kts | 109° |
| 2026-05-04 13:49 | 43.21753 | -2.17308 | 17258 ft | 423 kts | 110° |
| 2026-05-04 13:49 | 43.20910 | -2.13437 | 17756 ft | 425 kts | 110° |
| 2026-05-04 13:49 | 43.20064 | -2.09550 | 18203 ft | 428 kts | 110° |
| 2026-05-04 13:50 | 43.19209 | -2.05635 | 18612 ft | 430 kts | 110° |
| 2026-05-04 13:50 | 43.18345 | -2.01701 | 19024 ft | 432 kts | 110° |
| 2026-05-04 13:50 | 43.17490 | -1.97816 | 19447 ft | 433 kts | 110° |
| 2026-05-04 13:50 | 43.16616 | -1.93842 | 19883 ft | 435 kts | 110° |
| 2026-05-04 13:51 | 43.15737 | -1.89858 | 20306 ft | 437 kts | 110° |
| 2026-05-04 13:51 | 43.14851 | -1.85865 | 20705 ft | 440 kts | 110° |
| 2026-05-04 13:51 | 43.13962 | -1.81856 | 21113 ft | 441 kts | 110° |
| 2026-05-04 13:51 | 43.13068 | -1.77825 | 21530 ft | 443 kts | 111° |
| 2026-05-04 13:52 | 43.11260 | -1.69718 | 22286 ft | 447 kts | 111° |
| 2026-05-04 13:52 | 43.10348 | -1.65636 | 22669 ft | 449 kts | 111° |
| 2026-05-04 13:52 | 43.09429 | -1.61538 | 23111 ft | 452 kts | 111° |
| 2026-05-04 13:53 | 43.08505 | -1.57420 | 23527 ft | 454 kts | 111° |
| 2026-05-04 13:53 | 43.07575 | -1.53280 | 23863 ft | 456 kts | 111° |
| 2026-05-04 13:53 | 43.06641 | -1.49125 | 24191 ft | 458 kts | 111° |
| 2026-05-04 13:54 | 43.04756 | -1.40769 | 24819 ft | 461 kts | 111° |
| 2026-05-04 13:54 | 43.03808 | -1.36565 | 25094 ft | 463 kts | 111° |
| 2026-05-04 13:54 | 43.01896 | -1.28122 | 25690 ft | 466 kts | 111° |
| 2026-05-04 13:55 | 43.00934 | -1.23900 | 26150 ft | 464 kts | 111° |
| 2026-05-04 13:55 | 42.99020 | -1.15510 | 26971 ft | 462 kts | 112° |
| 2026-05-04 13:55 | 42.98064 | -1.11323 | 27353 ft | 462 kts | 112° |
| 2026-05-04 13:56 | 42.97121 | -1.07197 | 27723 ft | 461 kts | 112° |
| 2026-05-04 13:56 | 42.96151 | -1.02967 | 28098 ft | 461 kts | 112° |
| 2026-05-04 13:56 | 42.94225 | -0.94620 | 28836 ft | 461 kts | 112° |
| 2026-05-04 13:57 | 42.93272 | -0.90505 | 29174 ft | 461 kts | 112° |
| 2026-05-04 13:57 | 42.92305 | -0.86336 | 29489 ft | 461 kts | 112° |
| 2026-05-04 13:58 | 42.89505 | -0.73757 | 30370 ft | 467 kts | 106° |
| 2026-05-04 13:58 | 42.89360 | -0.64800 | 30876 ft | 482 kts | 85° |
| 2026-05-04 13:58 | 42.90168 | -0.60363 | 31084 ft | 489 kts | 74° |
| 2026-05-04 13:59 | 42.91567 | -0.56088 | 31270 ft | 496 kts | 63° |
| 2026-05-04 13:59 | 42.93303 | -0.52017 | 31561 ft | 497 kts | 63° |
| 2026-05-04 13:59 | 42.96762 | -0.43828 | 31936 ft | 498 kts | 63° |
| 2026-05-04 14:00 | 42.98487 | -0.39709 | 31977 ft | 501 kts | 63° |
| 2026-05-04 14:00 | 43.03672 | -0.27303 | 31971 ft | 502 kts | 63° |
| 2026-05-04 14:01 | 43.07132 | -0.19017 | 31972 ft | 502 kts | 64° |
| 2026-05-04 14:02 | 43.12318 | -0.06559 | 31967 ft | 503 kts | 64° |
| 2026-05-04 14:02 | 43.15773 | 0.01764 | 31969 ft | 503 kts | 64° |
| 2026-05-04 14:03 | 43.19225 | 0.10098 | 31978 ft | 503 kts | 64° |
| 2026-05-04 14:03 | 43.22667 | 0.18446 | 31974 ft | 502 kts | 64° |
| 2026-05-04 14:04 | 43.27805 | 0.30962 | 31967 ft | 501 kts | 64° |
| 2026-05-04 14:04 | 43.31195 | 0.39233 | 31959 ft | 500 kts | 64° |
| 2026-05-04 14:05 | 43.36291 | 0.51740 | 31952 ft | 499 kts | 64° |
| 2026-05-04 14:06 | 43.39680 | 0.60069 | 31958 ft | 498 kts | 64° |
| 2026-05-04 14:06 | 43.43046 | 0.68378 | 31950 ft | 497 kts | 64° |
| 2026-05-04 14:07 | 43.46403 | 0.76695 | 31948 ft | 496 kts | 64° |
| 2026-05-04 14:07 | 43.49745 | 0.84986 | 31946 ft | 495 kts | 64° |
| 2026-05-04 14:08 | 43.53071 | 0.93278 | 31939 ft | 494 kts | 64° |
| 2026-05-04 14:08 | 43.56379 | 1.01558 | 31929 ft | 493 kts | 64° |
| 2026-05-04 14:09 | 43.61350 | 1.13987 | 31918 ft | 493 kts | 64° |
| 2026-05-04 14:10 | 43.66298 | 1.26459 | 31920 ft | 493 kts | 63° |
| 2026-05-04 14:10 | 43.69963 | 1.34483 | 31912 ft | 495 kts | 55° |
| 2026-05-04 14:11 | 43.74070 | 1.42142 | 31905 ft | 496 kts | 55° |
| 2026-05-04 14:11 | 43.80237 | 1.53724 | 31916 ft | 501 kts | 55° |
| 2026-05-04 14:12 | 43.84346 | 1.61475 | 31895 ft | 498 kts | 55° |
| 2026-05-04 14:13 | 43.90499 | 1.73089 | 31893 ft | 499 kts | 55° |
| 2026-05-04 14:13 | 43.94604 | 1.80871 | 31894 ft | 500 kts | 55° |
| 2026-05-04 14:14 | 43.98631 | 1.88684 | 31905 ft | 501 kts | 57° |
| 2026-05-04 14:14 | 44.04561 | 2.00724 | 31913 ft | 501 kts | 57° |
| 2026-05-04 14:15 | 44.12427 | 2.16653 | 31922 ft | 501 kts | 57° |
| 2026-05-04 14:16 | 44.18366 | 2.28646 | 31929 ft | 501 kts | 57° |
| 2026-05-04 14:17 | 44.24265 | 2.40699 | 31948 ft | 503 kts | 57° |
| 2026-05-04 14:18 | 44.30190 | 2.52782 | 31944 ft | 503 kts | 57° |
| 2026-05-04 14:19 | 44.38070 | 2.68947 | 31943 ft | 503 kts | 57° |
| 2026-05-04 14:19 | 44.41999 | 2.77054 | 31948 ft | 503 kts | 57° |
| 2026-05-04 14:20 | 44.45916 | 2.85162 | 31958 ft | 503 kts | 58° |
| 2026-05-04 14:20 | 44.49836 | 2.93289 | 31963 ft | 503 kts | 58° |
| 2026-05-04 14:21 | 44.55700 | 3.05496 | 31973 ft | 503 kts | 58° |
| 2026-05-04 14:21 | 44.59606 | 3.13648 | 31974 ft | 503 kts | 58° |
| 2026-05-04 14:22 | 44.63350 | 3.21940 | 31979 ft | 502 kts | 62° |
| 2026-05-04 14:22 | 44.66709 | 3.30454 | 31979 ft | 501 kts | 64° |
| 2026-05-04 14:23 | 44.71695 | 3.43390 | 31990 ft | 502 kts | 63° |
| 2026-05-04 14:24 | 44.75111 | 3.51974 | 31986 ft | 502 kts | 63° |
| 2026-05-04 14:24 | 44.78540 | 3.60537 | 31986 ft | 503 kts | 63° |
| 2026-05-04 14:25 | 44.81966 | 3.69140 | 31991 ft | 503 kts | 63° |
| 2026-05-04 14:25 | 44.87059 | 3.82066 | 31992 ft | 503 kts | 63° |
| 2026-05-04 14:26 | 44.90453 | 3.90709 | 31994 ft | 503 kts | 63° |
| 2026-05-04 14:26 | 44.93839 | 3.99356 | 31999 ft | 503 kts | 63° |
| 2026-05-04 14:27 | 44.97215 | 4.08012 | 32001 ft | 503 kts | 63° |
| 2026-05-04 14:27 | 45.00590 | 4.16680 | 32007 ft | 503 kts | 63° |
| 2026-05-04 14:28 | 45.03951 | 4.25357 | 32010 ft | 503 kts | 63° |
| 2026-05-04 14:28 | 45.07280 | 4.33969 | 32014 ft | 503 kts | 63° |
| 2026-05-04 14:29 | 45.13979 | 4.51347 | 32015 ft | 502 kts | 63° |
| 2026-05-04 14:30 | 45.17313 | 4.60041 | 32023 ft | 502 kts | 63° |
| 2026-05-04 14:31 | 45.21729 | 4.71618 | 32030 ft | 501 kts | 64° |
| 2026-05-04 14:32 | 45.28342 | 4.89026 | 32044 ft | 500 kts | 64° |
| 2026-05-04 14:32 | 45.31636 | 4.97739 | 32050 ft | 500 kts | 64° |
| 2026-05-04 14:33 | 45.34910 | 5.06458 | 32056 ft | 499 kts | 64° |
| 2026-05-04 14:33 | 45.38181 | 5.15170 | 32072 ft | 499 kts | 64° |
| 2026-05-04 14:34 | 45.41453 | 5.23876 | 32072 ft | 499 kts | 64° |
| 2026-05-04 14:34 | 45.44705 | 5.32595 | 32074 ft | 498 kts | 64° |
| 2026-05-04 14:35 | 45.48042 | 5.41235 | 32072 ft | 499 kts | 57° |
| 2026-05-04 14:35 | 45.52618 | 5.48647 | 32052 ft | 499 kts | 41° |
| 2026-05-04 14:36 | 45.57810 | 5.55222 | 32071 ft | 499 kts | 42° |
| 2026-05-04 14:36 | 45.62979 | 5.61839 | 32074 ft | 498 kts | 42° |
| 2026-05-04 14:37 | 45.68123 | 5.68470 | 32072 ft | 498 kts | 42° |
| 2026-05-04 14:37 | 45.73267 | 5.75096 | 32073 ft | 497 kts | 42° |
| 2026-05-04 14:38 | 45.78421 | 5.81704 | 32075 ft | 497 kts | 42° |
| 2026-05-04 14:38 | 45.83566 | 5.88302 | 32076 ft | 496 kts | 42° |
| 2026-05-04 14:39 | 45.88701 | 5.94928 | 32077 ft | 496 kts | 43° |
| 2026-05-04 14:39 | 45.93820 | 6.01555 | 32074 ft | 495 kts | 43° |
| 2026-05-04 14:40 | 46.01472 | 6.11500 | 32075 ft | 494 kts | 43° |
| 2026-05-04 14:40 | 46.06576 | 6.18142 | 32072 ft | 494 kts | 43° |
| 2026-05-04 14:41 | 46.11631 | 6.24842 | 32090 ft | 493 kts | 45° |
| 2026-05-04 14:42 | 46.21311 | 6.38782 | 32082 ft | 493 kts | 46° |
| 2026-05-04 14:42 | 46.26167 | 6.45777 | 32077 ft | 492 kts | 46° |
| 2026-05-04 14:43 | 46.31043 | 6.52714 | 32071 ft | 492 kts | 45° |
| 2026-05-04 14:43 | 46.35908 | 6.59673 | 32061 ft | 491 kts | 46° |
| 2026-05-04 14:44 | 46.40750 | 6.66648 | 32055 ft | 491 kts | 46° |
| 2026-05-04 14:44 | 46.45594 | 6.73633 | 32054 ft | 491 kts | 46° |
| 2026-05-04 14:45 | 46.50427 | 6.80625 | 32053 ft | 490 kts | 46° |
| 2026-05-04 14:45 | 46.55243 | 6.87631 | 32057 ft | 490 kts | 48° |
| 2026-05-04 14:46 | 46.59586 | 6.95213 | 32061 ft | 488 kts | 53° |
| 2026-05-04 14:46 | 46.63848 | 7.02897 | 32063 ft | 488 kts | 53° |
| 2026-05-04 14:47 | 46.68111 | 7.10592 | 32062 ft | 488 kts | 53° |
| 2026-05-04 14:47 | 46.72367 | 7.18291 | 32056 ft | 488 kts | 53° |
| 2026-05-04 14:48 | 46.76624 | 7.26016 | 32021 ft | 488 kts | 53° |
| 2026-05-04 14:48 | 46.80868 | 7.33742 | 32020 ft | 488 kts | 53° |
| 2026-05-04 14:49 | 46.84488 | 7.42050 | 32024 ft | 483 kts | 69° |
| 2026-05-04 14:49 | 46.86313 | 7.51047 | 32024 ft | 477 kts | 83° |
| 2026-05-04 14:50 | 46.87529 | 7.60579 | 32017 ft | 477 kts | 83° |
| 2026-05-04 14:50 | 46.88759 | 7.70104 | 32011 ft | 477 kts | 82° |
| 2026-05-04 14:51 | 46.89990 | 7.79645 | 32000 ft | 478 kts | 82° |
| 2026-05-04 14:51 | 46.91203 | 7.89193 | 31993 ft | 477 kts | 82° |
| 2026-05-04 14:52 | 46.92409 | 7.98745 | 31997 ft | 477 kts | 82° |
| 2026-05-04 14:52 | 46.93596 | 8.08308 | 31967 ft | 478 kts | 83° |
| 2026-05-04 14:53 | 46.94778 | 8.17881 | 31975 ft | 478 kts | 82° |
| 2026-05-04 14:53 | 46.95962 | 8.27455 | 31975 ft | 478 kts | 82° |
| 2026-05-04 14:54 | 46.97128 | 8.37012 | 32002 ft | 478 kts | 82° |
| 2026-05-04 14:54 | 46.98294 | 8.46616 | 32004 ft | 478 kts | 82° |
| 2026-05-04 14:55 | 46.99449 | 8.56206 | 32006 ft | 478 kts | 82° |
| 2026-05-04 14:55 | 47.00587 | 8.65804 | 32005 ft | 478 kts | 82° |
| 2026-05-04 14:56 | 47.01730 | 8.75412 | 32007 ft | 478 kts | 82° |
| 2026-05-04 14:56 | 47.02867 | 8.85011 | 32010 ft | 478 kts | 82° |
| 2026-05-04 14:57 | 47.03989 | 8.94612 | 32026 ft | 478 kts | 82° |
| 2026-05-04 14:57 | 47.05103 | 9.04225 | 32030 ft | 478 kts | 82° |
| 2026-05-04 14:58 | 47.06213 | 9.13830 | 32035 ft | 477 kts | 82° |
| 2026-05-04 14:58 | 47.07306 | 9.23424 | 32034 ft | 476 kts | 82° |
| 2026-05-04 14:59 | 47.08385 | 9.33000 | 32027 ft | 475 kts | 82° |
| 2026-05-04 15:00 | 47.10001 | 9.47351 | 32027 ft | 474 kts | 82° |
| 2026-05-04 15:00 | 47.11059 | 9.56910 | 32028 ft | 474 kts | 83° |
| 2026-05-04 15:01 | 47.12639 | 9.71235 | 32030 ft | 474 kts | 83° |
| 2026-05-04 15:01 | 47.13683 | 9.80795 | 32024 ft | 473 kts | 83° |
| 2026-05-04 15:02 | 47.14712 | 9.90356 | 32032 ft | 474 kts | 83° |
| 2026-05-04 15:02 | 47.15736 | 9.99846 | 32044 ft | 474 kts | 83° |
| 2026-05-04 15:03 | 47.16778 | 10.09463 | 32048 ft | 473 kts | 83° |
| 2026-05-04 15:03 | 47.17790 | 10.18954 | 32051 ft | 473 kts | 83° |
| 2026-05-04 15:04 | 47.18791 | 10.28512 | 32045 ft | 473 kts | 83° |
| 2026-05-04 15:04 | 47.19791 | 10.38076 | 32044 ft | 473 kts | 83° |
| 2026-05-04 15:05 | 47.20765 | 10.47397 | 32025 ft | 473 kts | 83° |
| 2026-05-04 15:05 | 47.21743 | 10.56971 | 32020 ft | 474 kts | 83° |
| 2026-05-04 15:06 | 47.22715 | 10.66556 | 32017 ft | 474 kts | 84° |
| 2026-05-04 15:07 | 47.24170 | 10.80934 | 32010 ft | 473 kts | 83° |
| 2026-05-04 15:07 | 47.25130 | 10.90515 | 31995 ft | 473 kts | 83° |
| 2026-05-04 15:08 | 47.26070 | 11.00094 | 31973 ft | 472 kts | 84° |
| 2026-05-04 15:08 | 47.27009 | 11.09655 | 31955 ft | 472 kts | 84° |
| 2026-05-04 15:09 | 47.27946 | 11.19231 | 31946 ft | 472 kts | 84° |
| 2026-05-04 15:09 | 47.28868 | 11.28800 | 31951 ft | 472 kts | 84° |
| 2026-05-04 15:10 | 47.30233 | 11.43136 | 31954 ft | 471 kts | 84° |
| 2026-05-04 15:11 | 47.31571 | 11.57466 | 31951 ft | 470 kts | 84° |
| 2026-05-04 15:11 | 47.32462 | 11.67017 | 31955 ft | 471 kts | 84° |
| 2026-05-04 15:12 | 47.33192 | 11.74918 | 31956 ft | 470 kts | 84° |
| 2026-05-04 15:12 | 47.34214 | 11.86073 | 31960 ft | 471 kts | 84° |
| 2026-05-04 15:13 | 47.35391 | 11.93965 | 31959 ft | 472 kts | 71° |
| 2026-05-04 15:13 | 47.38056 | 12.02831 | 31952 ft | 473 kts | 66° |
| 2026-05-04 15:14 | 47.40814 | 12.11664 | 31957 ft | 474 kts | 66° |
| 2026-05-04 15:14 | 47.43551 | 12.20509 | 31960 ft | 474 kts | 66° |
| 2026-05-04 15:15 | 47.46280 | 12.29365 | 31950 ft | 474 kts | 66° |
| 2026-05-04 15:15 | 47.49000 | 12.38236 | 31943 ft | 473 kts | 66° |
| 2026-05-04 15:16 | 47.53080 | 12.51531 | 31936 ft | 473 kts | 66° |
| 2026-05-04 15:17 | 47.57144 | 12.64861 | 31930 ft | 473 kts | 66° |
| 2026-05-04 15:17 | 47.61181 | 12.78159 | 31929 ft | 474 kts | 66° |
| 2026-05-04 15:18 | 47.63873 | 12.87063 | 31931 ft | 473 kts | 66° |
| 2026-05-04 15:19 | 47.67900 | 13.00449 | 31926 ft | 473 kts | 66° |
| 2026-05-04 15:19 | 47.71908 | 13.13849 | 31924 ft | 474 kts | 66° |
| 2026-05-04 15:20 | 47.74575 | 13.22805 | 31931 ft | 474 kts | 66° |
| 2026-05-04 15:20 | 47.77226 | 13.31780 | 31940 ft | 474 kts | 66° |
| 2026-05-04 15:21 | 47.79871 | 13.40749 | 31943 ft | 474 kts | 66° |
| 2026-05-04 15:22 | 47.83836 | 13.54213 | 31938 ft | 474 kts | 66° |
| 2026-05-04 15:22 | 47.87793 | 13.67713 | 31938 ft | 474 kts | 66° |
| 2026-05-04 15:23 | 47.90415 | 13.76711 | 31941 ft | 474 kts | 66° |
| 2026-05-04 15:23 | 47.93030 | 13.85733 | 31941 ft | 474 kts | 66° |
| 2026-05-04 15:24 | 47.98227 | 14.03777 | 31935 ft | 474 kts | 66° |
| 2026-05-04 15:25 | 48.00828 | 14.12855 | 31933 ft | 474 kts | 66° |
| 2026-05-04 15:26 | 48.04713 | 14.26438 | 31936 ft | 474 kts | 66° |
| 2026-05-04 15:26 | 48.08575 | 14.40023 | 31933 ft | 473 kts | 66° |
| 2026-05-04 15:27 | 48.12412 | 14.53635 | 31930 ft | 473 kts | 66° |
| 2026-05-04 15:28 | 48.16239 | 14.67269 | 31939 ft | 473 kts | 66° |
| 2026-05-04 15:29 | 48.20051 | 14.80913 | 31941 ft | 473 kts | 66° |
| 2026-05-04 15:30 | 48.28858 | 15.12770 | 31946 ft | 473 kts | 66° |
| 2026-05-04 15:31 | 48.32623 | 15.26540 | 31959 ft | 473 kts | 66° |
| 2026-05-04 15:32 | 48.38828 | 15.49362 | 31952 ft | 472 kts | 66° |
| 2026-05-04 15:34 | 48.44984 | 15.72277 | 31956 ft | 472 kts | 66° |
| 2026-05-04 15:34 | 48.48657 | 15.86040 | 31972 ft | 471 kts | 66° |
| 2026-05-04 15:35 | 48.52321 | 15.99799 | 31961 ft | 471 kts | 66° |
| 2026-05-04 15:36 | 48.55952 | 16.13571 | 31968 ft | 471 kts | 67° |
| 2026-05-04 15:36 | 48.58357 | 16.22767 | 31972 ft | 471 kts | 67° |
| 2026-05-04 15:37 | 48.60761 | 16.31961 | 31975 ft | 470 kts | 67° |
| 2026-05-04 15:37 | 48.63163 | 16.41155 | 31979 ft | 470 kts | 67° |
| 2026-05-04 15:38 | 48.65548 | 16.50360 | 31981 ft | 470 kts | 67° |
| 2026-05-04 15:38 | 48.67921 | 16.59565 | 31991 ft | 470 kts | 67° |
| 2026-05-04 15:39 | 48.70288 | 16.68782 | 31986 ft | 469 kts | 67° |
| 2026-05-04 15:40 | 48.74499 | 16.81984 | 31988 ft | 465 kts | 51° |
| 2026-05-04 15:40 | 48.78489 | 16.89677 | 31987 ft | 464 kts | 50° |
| 2026-05-04 15:41 | 48.82484 | 16.97378 | 31991 ft | 464 kts | 50° |
| 2026-05-04 15:41 | 48.86470 | 17.05084 | 31998 ft | 464 kts | 50° |
| 2026-05-04 15:42 | 48.90453 | 17.12822 | 32005 ft | 464 kts | 50° |
| 2026-05-04 15:42 | 48.94436 | 17.20560 | 32010 ft | 465 kts | 50° |
| 2026-05-04 15:43 | 48.98416 | 17.28316 | 32013 ft | 465 kts | 50° |
| 2026-05-04 15:43 | 49.02393 | 17.36092 | 32013 ft | 465 kts | 50° |
| 2026-05-04 15:44 | 49.06364 | 17.43897 | 32012 ft | 465 kts | 50° |
| 2026-05-04 15:44 | 49.10329 | 17.51707 | 32012 ft | 466 kts | 51° |
| 2026-05-04 15:45 | 49.14261 | 17.59467 | 32014 ft | 466 kts | 51° |
| 2026-05-04 15:45 | 49.18234 | 17.67330 | 32010 ft | 467 kts | 51° |
| 2026-05-04 15:46 | 49.22203 | 17.75208 | 32012 ft | 467 kts | 51° |
| 2026-05-04 15:46 | 49.26156 | 17.83088 | 32016 ft | 467 kts | 51° |
| 2026-05-04 15:47 | 49.30113 | 17.90989 | 32019 ft | 468 kts | 51° |
| 2026-05-04 15:47 | 49.34073 | 17.98922 | 32019 ft | 468 kts | 51° |
| 2026-05-04 15:48 | 49.38031 | 18.06862 | 32021 ft | 469 kts | 51° |
| 2026-05-04 15:48 | 49.43955 | 18.18806 | 32020 ft | 469 kts | 51° |
| 2026-05-04 15:49 | 49.47907 | 18.26807 | 32021 ft | 469 kts | 51° |
| 2026-05-04 15:49 | 49.51846 | 18.34812 | 32021 ft | 469 kts | 51° |
| 2026-05-04 15:50 | 49.55783 | 18.42819 | 32025 ft | 469 kts | 51° |
| 2026-05-04 15:50 | 49.59711 | 18.50836 | 32020 ft | 468 kts | 51° |
| 2026-05-04 15:51 | 49.63627 | 18.58866 | 32026 ft | 468 kts | 52° |
| 2026-05-04 15:51 | 49.67531 | 18.66917 | 32022 ft | 468 kts | 52° |
| 2026-05-04 15:52 | 49.71762 | 18.74508 | 32020 ft | 466 kts | 44° |
| 2026-05-04 15:52 | 49.76318 | 18.81653 | 32017 ft | 467 kts | 44° |
| 2026-05-04 15:53 | 49.80867 | 18.88824 | 32006 ft | 467 kts | 44° |
| 2026-05-04 15:53 | 49.85404 | 18.96019 | 32007 ft | 467 kts | 44° |
| 2026-05-04 15:54 | 49.89934 | 19.03235 | 32005 ft | 467 kts | 44° |
| 2026-05-04 15:54 | 49.93701 | 19.09243 | 32005 ft | 467 kts | 44° |
| 2026-05-04 15:55 | 49.98232 | 19.16475 | 32007 ft | 467 kts | 44° |
| 2026-05-04 15:55 | 50.02758 | 19.23712 | 32006 ft | 467 kts | 44° |
| 2026-05-04 15:56 | 50.07271 | 19.30965 | 32006 ft | 466 kts | 45° |
| 2026-05-04 15:56 | 50.11782 | 19.38235 | 31993 ft | 466 kts | 44° |
| 2026-05-04 15:57 | 50.16291 | 19.45501 | 31995 ft | 466 kts | 45° |
| 2026-05-04 15:57 | 50.20727 | 19.52691 | 31997 ft | 467 kts | 45° |
| 2026-05-04 15:58 | 50.25166 | 19.59921 | 31998 ft | 467 kts | 45° |
| 2026-05-04 15:58 | 50.29659 | 19.67232 | 31993 ft | 466 kts | 45° |
| 2026-05-04 15:59 | 50.34153 | 19.74567 | 31995 ft | 466 kts | 45° |
| 2026-05-04 15:59 | 50.36397 | 19.78235 | 31766 ft | 466 kts | 45° |
| 2026-05-04 15:59 | 50.38615 | 19.81865 | 31517 ft | 466 kts | 45° |
| 2026-05-04 16:00 | 50.40858 | 19.85544 | 31274 ft | 467 kts | 45° |
| 2026-05-04 16:00 | 50.43104 | 19.89231 | 31014 ft | 467 kts | 45° |
| 2026-05-04 16:00 | 50.45346 | 19.92924 | 30765 ft | 468 kts | 45° |
| 2026-05-04 16:00 | 50.47588 | 19.96631 | 30521 ft | 469 kts | 45° |
| 2026-05-04 16:01 | 50.49838 | 20.00357 | 30274 ft | 470 kts | 45° |
| 2026-05-04 16:01 | 50.52085 | 20.04083 | 30019 ft | 471 kts | 45° |
| 2026-05-04 16:01 | 50.54339 | 20.07817 | 29743 ft | 471 kts | 45° |
| 2026-05-04 16:01 | 50.56600 | 20.11565 | 29459 ft | 472 kts | 45° |
| 2026-05-04 16:02 | 50.58860 | 20.15318 | 29176 ft | 473 kts | 45° |
| 2026-05-04 16:02 | 50.61125 | 20.19087 | 28899 ft | 474 kts | 45° |
| 2026-05-04 16:02 | 50.66144 | 20.25762 | 28354 ft | 473 kts | 29° |
| 2026-05-04 16:03 | 50.69075 | 20.28104 | 28089 ft | 472 kts | 21° |
| 2026-05-04 16:03 | 50.72087 | 20.30149 | 27819 ft | 473 kts | 21° |
| 2026-05-04 16:03 | 50.75116 | 20.32219 | 27558 ft | 474 kts | 21° |
| 2026-05-04 16:03 | 50.78146 | 20.34305 | 27293 ft | 475 kts | 21° |
| 2026-05-04 16:04 | 50.81175 | 20.36396 | 27032 ft | 476 kts | 21° |
| 2026-05-04 16:04 | 50.87251 | 20.40600 | 26521 ft | 478 kts | 21° |
| 2026-05-04 16:04 | 50.90300 | 20.42709 | 26264 ft | 478 kts | 21° |
| 2026-05-04 16:05 | 50.93354 | 20.44826 | 26016 ft | 479 kts | 22° |
| 2026-05-04 16:05 | 50.96404 | 20.46947 | 25116 ft | 481 kts | 22° |
| 2026-05-04 16:05 | 51.02620 | 20.51274 | 23030 ft | 489 kts | 22° |
| 2026-05-04 16:06 | 51.05721 | 20.53438 | 22215 ft | 484 kts | 22° |
| 2026-05-04 16:06 | 51.13592 | 20.58955 | 20104 ft | 447 kts | 22° |
| 2026-05-04 16:07 | 51.17312 | 20.61568 | 19548 ft | 421 kts | 21° |
| 2026-05-04 16:07 | 51.24888 | 20.66886 | 18805 ft | 385 kts | 21° |
| 2026-05-04 16:08 | 51.27335 | 20.68604 | 18566 ft | 384 kts | 21° |
| 2026-05-04 16:08 | 51.34863 | 20.72813 | 17496 ft | 381 kts | 15° |
| 2026-05-04 16:09 | 51.39858 | 20.75486 | 16423 ft | 373 kts | 15° |
| 2026-05-04 16:09 | 51.44732 | 20.78106 | 15320 ft | 367 kts | 15° |
| 2026-05-04 16:10 | 51.49535 | 20.80685 | 14256 ft | 361 kts | 16° |
| 2026-05-04 16:11 | 51.56612 | 20.84503 | 12644 ft | 356 kts | 16° |
| 2026-05-04 16:11 | 51.58954 | 20.85766 | 12126 ft | 355 kts | 16° |
| 2026-05-04 16:12 | 51.65908 | 20.89535 | 10750 ft | 349 kts | 16° |
| 2026-05-04 16:12 | 51.72480 | 20.93083 | 9978 ft | 311 kts | 15° |
| 2026-05-04 16:13 | 51.76521 | 20.95189 | 9388 ft | 304 kts | 16° |
| 2026-05-04 16:13 | 51.80192 | 20.98707 | 8611 ft | 307 kts | 34° |
| 2026-05-04 16:14 | 51.83615 | 21.02751 | 7546 ft | 302 kts | 34° |
| 2026-05-04 16:14 | 51.86853 | 21.06863 | 6563 ft | 293 kts | 46° |
| 2026-05-04 16:15 | 51.90364 | 21.14736 | 5379 ft | 282 kts | 31° |
| 2026-05-04 16:16 | 51.93963 | 21.15973 | 4954 ft | 262 kts | 345° |
| 2026-05-04 16:16 | 51.98756 | 21.12210 | 3971 ft | 248 kts | 329° |
| 2026-05-04 16:17 | 52.01652 | 21.09703 | 3353 ft | 226 kts | 328° |
| 2026-05-04 16:18 | 52.05601 | 21.06276 | 2512 ft | 197 kts | 329° |
| 2026-05-04 16:18 | 52.06744 | 21.05285 | 2269 ft | 177 kts | 328° |
| 2026-05-04 16:19 | 52.09723 | 21.02691 | 1642 ft | 154 kts | 327° |
| 2026-05-04 16:19 | 52.11603 | 21.01052 | 1224 ft | 152 kts | 327° |
| 2026-05-04 16:20 | 52.14394 | 20.98606 | 613 ft | 149 kts | 328° |
| 2026-05-04 16:20 | 52.16171 | 20.97059 | 337 ft | 127 kts | 330° |
| 2026-05-04 16:21 | 52.17172 | 20.96247 | 337 ft | 19 kts | 351° |
| 2026-05-04 16:22 | 52.17354 | 20.96249 | 337 ft | 0 kts | 9° |
| 2026-05-04 16:22 | 52.17380 | 20.96264 | 339 ft | 7 kts | 31° |
| 2026-05-04 16:23 | 52.17450 | 20.96578 | 335 ft | 12 kts | 136° |
| 2026-05-04 16:24 | 52.17268 | 20.96666 | 333 ft | 4 kts | 218° |
| 2026-05-04 16:25 | 52.17235 | 20.96637 | 337 ft | 0 kts | 207° |